Norwegian Dream — C6LG5 — position and weather

sailwx.info

Track history (hours):
 
Tides and Currents Weather Stations Pressure Air Temp Water Temp Dewpoint Dewpoint Depression Visibility Wind Speed Wind Dir Waves Ship Positions

Norwegian Dream

Operator: Norwegian Cruise Line

Last reported at 2018-Jul-21 18:00 UTC. Time now 2018-Jul-22 03:20 UTC.
Position N 25°00' E 124°36'.

Type: Ship. MMSI: 308272000.

Wind from 210 at 17 knots

Barometer 1001.0 mb
Air temperature 27.0 ° C
Visibility: greater than 5.4 NM
Dewpoint 25.7 ° C
Water temperature 27.0 ° C

Date/timePositionNaut miles runAvg speedWind from/ knotsBaromVisibWave heightAir tempDewpointWater temp
2018-Jul-21 18:00N 25°00' E 124°36'31013.5 210 / 171001.0 5.4 27.025.727.0
2018-Jul-20 18:57N 24°24' E 118°57'716.5
2018-Jul-20 18:30N 24°20' E 118°50'1529.5
2018-Jul-20 18:00N 24°12' E 118°36'6174.5 050 / 211004.0 5.4 27.025.727.0
2018-Jul-20 17:57N 24°16' E 118°41'816.7
2018-Jul-20 17:29N 24°13' E 118°33'816.3
2018-Jul-20 17:00N 24°13' E 118°24'816.1
2018-Jul-20 16:30N 24°15' E 118°16'815.5
2018-Jul-20 16:01N 24°21' E 118°10'713.4
2018-Jul-20 15:30N 24°25' E 118°05'4 7.7
2018-Jul-20 15:00N 24°29' E 118°04'1 1.0
2018-Jul-20 14:26N 24°29' E 118°04'0 0.0
2018-Jul-20 14:00N 24°29' E 118°04'0 0.0
2018-Jul-20 13:27N 24°29' E 118°04'0 0.0
2018-Jul-20 12:59N 24°29' E 118°04'0 0.0
2018-Jul-20 12:20N 24°29' E 118°04'0 0.0
2018-Jul-20 11:57N 24°29' E 118°04'0 0.0
2018-Jul-20 11:29N 24°29' E 118°04'0 0.0
2018-Jul-20 10:56N 24°29' E 118°04'0 0.0
2018-Jul-20 10:27N 24°29' E 118°04'0 0.0
2018-Jul-20 10:00N 24°29' E 118°04'0 0.0
2018-Jul-20 09:29N 24°29' E 118°04'3 6.4
2018-Jul-20 09:00N 24°26' E 118°03'612.4
2018-Jul-20 08:30N 24°22' E 118°08'815.4
2018-Jul-20 08:00N 24°17' E 118°14'816.5
2018-Jul-20 07:31N 24°13' E 118°22'816.2
2018-Jul-20 07:01N 24°14' E 118°31'20215.6
2018-Jul-19 18:00N 25°24' E 122°00'211 8.8 050 / 121006.0 5.4 26.024.627.0
2018-Jul-18 18:00N 25°24' E 125°54'28 1.2 060 / 161007.0 5.4 27.025.727.0
2018-Jul-17 18:00N 25°42' E 125°30'37216.0 090 / 211028.0 5.4 28.026.727.0
2018-Jul-16 18:45N 24°20' E 118°50'515.1
2018-Jul-16 18:25N 24°18' E 118°45'615.1
2018-Jul-16 18:00N 24°15' E 118°39'4773.8
2018-Jul-16 18:00N 24°12' E 118°36'5 9.6 050 / 411003.0 5.4 28.026.727.0
2018-Jul-16 17:29N 24°13' E 118°31'715.3
2018-Jul-16 17:00N 24°14' E 118°23'816.6
2018-Jul-16 16:31N 24°18' E 118°15'715.0
2018-Jul-16 16:01N 24°22' E 118°08'611.8
2018-Jul-16 15:30N 24°26' E 118°03'3 6.7
2018-Jul-16 15:00N 24°29' E 118°04'0 0.0
2018-Jul-16 14:28N 24°29' E 118°04'0 0.0
2018-Jul-16 13:58N 24°29' E 118°04'0 0.0
2018-Jul-16 13:22N 24°29' E 118°04'0 0.0
2018-Jul-16 12:58N 24°29' E 118°04'0 0.0
2018-Jul-16 12:28N 24°29' E 118°04'0 0.0
2018-Jul-16 11:58N 24°29' E 118°04'0 0.0
2018-Jul-16 11:25N 24°29' E 118°04'0 0.0
2018-Jul-16 10:58N 24°29' E 118°04'0 0.0
2018-Jul-16 10:28N 24°29' E 118°04'0 0.0
2018-Jul-16 09:55N 24°29' E 118°04'0 0.0
2018-Jul-16 09:31N 24°29' E 118°04'2 3.5
2018-Jul-16 09:00N 24°28' E 118°03'510.2
2018-Jul-16 08:30N 24°24' E 118°07'611.1
2018-Jul-16 07:59N 24°20' E 118°11'613.0
2018-Jul-16 07:30N 24°15' E 118°15'713.3
2018-Jul-16 07:00N 24°11' E 118°22'814.2
2018-Jul-16 06:25N 24°12' E 118°31'1015.0
2018-Jul-16 05:44N 24°16' E 118°41'415.5
2018-Jul-16 05:31N 24°18' E 118°44'17915.6
2018-Jul-15 18:00N 25°24' E 121°48'154 6.4 090 / 141009.0 5.4 26.024.628.0
2018-Jul-14 18:00N 25°00' E 124°36'31613.8 090 / 141008.0 5.4 27.025.728.0
2018-Jul-13 19:00N 24°21' E 118°50'814.5
2018-Jul-13 18:28N 24°16' E 118°43'714.6
2018-Jul-13 18:00N 24°13' E 118°37'1100.0
2018-Jul-13 18:00N 24°12' E 118°36'613.1 010 / 101008.0 5.4 27.025.728.0
2018-Jul-13 17:30N 24°12' E 118°29'714.8
2018-Jul-13 17:00N 24°12' E 118°21'714.5
2018-Jul-13 16:30N 24°16' E 118°14'714.6
2018-Jul-13 16:00N 24°21' E 118°09'611.1
2018-Jul-13 15:30N 24°25' E 118°04'4 7.9
2018-Jul-13 15:00N 24°29' E 118°04'0 0.2
2018-Jul-13 14:30N 24°29' E 118°04'0 0.0
2018-Jul-13 13:30N 24°29' E 118°04'0 0.0
2018-Jul-13 13:00N 24°29' E 118°04'0 0.0
2018-Jul-13 12:30N 24°29' E 118°04'0 0.0
2018-Jul-13 12:00N 24°29' E 118°04'0 0.0
2018-Jul-13 11:30N 24°29' E 118°04'0 0.0
2018-Jul-13 10:54N 24°29' E 118°04'0 0.0
2018-Jul-13 10:30N 24°29' E 118°04'0 0.0
2018-Jul-13 09:57N 24°29' E 118°04'0 0.0
2018-Jul-13 09:30N 24°29' E 118°04'0 0.0
2018-Jul-13 09:00N 24°29' E 118°04'0 0.0
2018-Jul-13 08:30N 24°29' E 118°04'0 0.0
2018-Jul-13 08:00N 24°29' E 118°04'0 0.0
2018-Jul-13 07:30N 24°29' E 118°04'0 0.0
2018-Jul-13 07:00N 24°29' E 118°04'0 0.0
2018-Jul-13 06:30N 24°29' E 118°04'0 0.0
2018-Jul-13 06:00N 24°29' E 118°04'0 0.0
2018-Jul-13 05:30N 24°29' E 118°04'0 0.0
2018-Jul-13 05:00N 24°29' E 118°04'0 0.0
2018-Jul-13 04:30N 24°29' E 118°04'0 0.0
2018-Jul-13 04:00N 24°29' E 118°04'0 0.0
2018-Jul-13 03:30N 24°29' E 118°04'0 0.0
2018-Jul-13 03:00N 24°29' E 118°04'1 1.7
2018-Jul-13 02:30N 24°29' E 118°03'5 9.9
2018-Jul-13 02:01N 24°24' E 118°06'510.0
2018-Jul-13 01:30N 24°21' E 118°10'714.2
2018-Jul-13 01:00N 24°15' E 118°15'5 1.1
2018-Jul-12 20:57N 24°12' E 118°19'0 0.0
2018-Jul-12 20:09N 24°12' E 118°19'0 0.0
2018-Jul-12 19:51N 24°12' E 118°19'0 0.0
2018-Jul-12 19:27N 24°12' E 118°19'0 0.0
2018-Jul-12 18:57N 24°12' E 118°19'0 0.0
2018-Jul-12 18:30N 24°12' E 118°19'0 0.0
2018-Jul-12 18:00N 24°12' E 118°19'0 0.0
2018-Jul-12 17:27N 24°12' E 118°19'0 0.1
2018-Jul-12 16:57N 24°12' E 118°19'0 0.0
2018-Jul-12 16:27N 24°12' E 118°19'0 0.0
2018-Jul-12 15:57N 24°13' E 118°19'0 0.0
2018-Jul-12 15:24N 24°13' E 118°19'0 0.0
2018-Jul-12 15:00N 24°13' E 118°19'0 0.1
2018-Jul-12 14:30N 24°13' E 118°19'0 0.0
2018-Jul-12 13:51N 24°13' E 118°19'0 0.0
2018-Jul-12 10:04N 24°13' E 118°19'0 0.2
2018-Jul-12 10:00N 24°13' E 118°19'0 0.0
2018-Jul-12 09:24N 24°12' E 118°19'0 0.0
2018-Jul-12 08:58N 24°12' E 118°19'0 0.0
2018-Jul-12 08:30N 24°12' E 118°19'0 0.0
2018-Jul-12 07:58N 24°12' E 118°19'0 0.1
2018-Jul-12 07:30N 24°12' E 118°19'0 0.0
2018-Jul-12 06:58N 24°12' E 118°19'0 0.0
2018-Jul-12 06:24N 24°12' E 118°19'0 0.0
2018-Jul-12 06:00N 24°12' E 118°19'0 0.0
2018-Jul-12 05:28N 24°12' E 118°19'0 0.0
2018-Jul-12 04:58N 24°12' E 118°19'0 0.0
2018-Jul-12 04:30N 24°12' E 118°19'0 0.0
2018-Jul-12 03:58N 24°12' E 118°19'0 0.0
2018-Jul-12 03:28N 24°12' E 118°19'0 0.0
2018-Jul-12 02:58N 24°13' E 118°19'0 0.0
2018-Jul-12 02:28N 24°13' E 118°19'0 0.0
2018-Jul-12 01:58N 24°13' E 118°19'0 0.1
2018-Jul-12 01:28N 24°13' E 118°19'1 1.1
2018-Jul-12 00:45N 24°12' E 118°19'1 2.2
2018-Jul-12 00:30N 24°12' E 118°19'4 8.4
2018-Jul-12 00:00N 24°08' E 118°18'4 8.5
2018-Jul-11 23:30N 24°04' E 118°18'4 6.9
2018-Jul-11 22:53N 23°60' E 118°17'2 6.0
2018-Jul-11 22:30N 23°58' E 118°17'3 5.7
2018-Jul-11 22:00N 23°55' E 118°17'3 5.6
2018-Jul-11 21:30N 23°52' E 118°16'3 5.8
2018-Jul-11 21:00N 23°49' E 118°16'16 5.6
2018-Jul-11 18:10N 23°34' E 118°10'633.0
2018-Jul-11 18:00N 23°30' E 118°06'   180 / 141005.0 5.4 27.025.728.0
Track history (hours):
 
Tides and Currents Weather Stations Pressure Air Temp Water Temp Dewpoint Dewpoint Depression Visibility Wind Speed Wind Dir Waves Ship Positions

Norwegian Dream

Operator: Norwegian Cruise Line

Last reported at 2018-Jul-21 18:00 UTC. Time now 2018-Jul-22 03:20 UTC.
Position N 25°00' E 124°36'.

Type: Ship. MMSI: 308272000.

Wind from 210 at 17 knots

Barometer 1001.0 mb
Air temperature 27.0 ° C
Visibility: greater than 5.4 NM
Dewpoint 25.7 ° C
Water temperature 27.0 ° C

Date/timePositionNaut miles runAvg speedWind from/ knotsBaromVisibWave heightAir tempDewpointWater temp
2018-Jul-21 18:00N 25°00' E 124°36'31013.5 210 / 171001.0 5.4 27.025.727.0
2018-Jul-20 18:57N 24°24' E 118°57'716.5
2018-Jul-20 18:30N 24°20' E 118°50'1529.5
2018-Jul-20 18:00N 24°12' E 118°36'6174.5 050 / 211004.0 5.4 27.025.727.0
2018-Jul-20 17:57N 24°16' E 118°41'816.7
2018-Jul-20 17:29N 24°13' E 118°33'816.3
2018-Jul-20 17:00N 24°13' E 118°24'816.1
2018-Jul-20 16:30N 24°15' E 118°16'815.5
2018-Jul-20 16:01N 24°21' E 118°10'713.4
2018-Jul-20 15:30N 24°25' E 118°05'4 7.7
2018-Jul-20 15:00N 24°29' E 118°04'1 1.0
2018-Jul-20 14:26N 24°29' E 118°04'0 0.0
2018-Jul-20 14:00N 24°29' E 118°04'0 0.0
2018-Jul-20 13:27N 24°29' E 118°04'0 0.0
2018-Jul-20 12:59N 24°29' E 118°04'0 0.0
2018-Jul-20 12:20N 24°29' E 118°04'0 0.0
2018-Jul-20 11:57N 24°29' E 118°04'0 0.0
2018-Jul-20 11:29N 24°29' E 118°04'0 0.0
2018-Jul-20 10:56N 24°29' E 118°04'0 0.0
2018-Jul-20 10:27N 24°29' E 118°04'0 0.0
2018-Jul-20 10:00N 24°29' E 118°04'0 0.0
2018-Jul-20 09:29N 24°29' E 118°04'3 6.4
2018-Jul-20 09:00N 24°26' E 118°03'612.4
2018-Jul-20 08:30N 24°22' E 118°08'815.4
2018-Jul-20 08:00N 24°17' E 118°14'816.5
2018-Jul-20 07:31N 24°13' E 118°22'816.2
2018-Jul-20 07:01N 24°14' E 118°31'20215.6
2018-Jul-19 18:00N 25°24' E 122°00'211 8.8 050 / 121006.0 5.4 26.024.627.0
2018-Jul-18 18:00N 25°24' E 125°54'28 1.2 060 / 161007.0 5.4 27.025.727.0
2018-Jul-17 18:00N 25°42' E 125°30'37216.0 090 / 211028.0 5.4 28.026.727.0
2018-Jul-16 18:45N 24°20' E 118°50'515.1
2018-Jul-16 18:25N 24°18' E 118°45'615.1
2018-Jul-16 18:00N 24°15' E 118°39'4773.8
2018-Jul-16 18:00N 24°12' E 118°36'5 9.6 050 / 411003.0 5.4 28.026.727.0
2018-Jul-16 17:29N 24°13' E 118°31'715.3
2018-Jul-16 17:00N 24°14' E 118°23'816.6
2018-Jul-16 16:31N 24°18' E 118°15'715.0
2018-Jul-16 16:01N 24°22' E 118°08'611.8
2018-Jul-16 15:30N 24°26' E 118°03'3 6.7
2018-Jul-16 15:00N 24°29' E 118°04'0 0.0
2018-Jul-16 14:28N 24°29' E 118°04'0 0.0
2018-Jul-16 13:58N 24°29' E 118°04'0 0.0
2018-Jul-16 13:22N 24°29' E 118°04'0 0.0
2018-Jul-16 12:58N 24°29' E 118°04'0 0.0
2018-Jul-16 12:28N 24°29' E 118°04'0 0.0
2018-Jul-16 11:58N 24°29' E 118°04'0 0.0
2018-Jul-16 11:25N 24°29' E 118°04'0 0.0
2018-Jul-16 10:58N 24°29' E 118°04'0 0.0
2018-Jul-16 10:28N 24°29' E 118°04'0 0.0
2018-Jul-16 09:55N 24°29' E 118°04'0 0.0
2018-Jul-16 09:31N 24°29' E 118°04'2 3.5
2018-Jul-16 09:00N 24°28' E 118°03'510.2
2018-Jul-16 08:30N 24°24' E 118°07'611.1
2018-Jul-16 07:59N 24°20' E 118°11'613.0
2018-Jul-16 07:30N 24°15' E 118°15'713.3
2018-Jul-16 07:00N 24°11' E 118°22'814.2
2018-Jul-16 06:25N 24°12' E 118°31'1015.0
2018-Jul-16 05:44N 24°16' E 118°41'415.5
2018-Jul-16 05:31N 24°18' E 118°44'17915.6
2018-Jul-15 18:00N 25°24' E 121°48'154 6.4 090 / 141009.0 5.4 26.024.628.0
2018-Jul-14 18:00N 25°00' E 124°36'31613.8 090 / 141008.0 5.4 27.025.728.0
2018-Jul-13 19:00N 24°21' E 118°50'814.5
2018-Jul-13 18:28N 24°16' E 118°43'714.6
2018-Jul-13 18:00N 24°13' E 118°37'1100.0
2018-Jul-13 18:00N 24°12' E 118°36'613.1 010 / 101008.0 5.4 27.025.728.0
2018-Jul-13 17:30N 24°12' E 118°29'714.8
2018-Jul-13 17:00N 24°12' E 118°21'714.5
2018-Jul-13 16:30N 24°16' E 118°14'714.6
2018-Jul-13 16:00N 24°21' E 118°09'611.1
2018-Jul-13 15:30N 24°25' E 118°04'4 7.9
2018-Jul-13 15:00N 24°29' E 118°04'0 0.2
2018-Jul-13 14:30N 24°29' E 118°04'0 0.0
2018-Jul-13 13:30N 24°29' E 118°04'0 0.0
2018-Jul-13 13:00N 24°29' E 118°04'0 0.0
2018-Jul-13 12:30N 24°29' E 118°04'0 0.0
2018-Jul-13 12:00N 24°29' E 118°04'0 0.0
2018-Jul-13 11:30N 24°29' E 118°04'0 0.0
2018-Jul-13 10:54N 24°29' E 118°04'0 0.0
2018-Jul-13 10:30N 24°29' E 118°04'0 0.0
2018-Jul-13 09:57N 24°29' E 118°04'0 0.0
2018-Jul-13 09:30N 24°29' E 118°04'0 0.0
2018-Jul-13 09:00N 24°29' E 118°04'0 0.0
2018-Jul-13 08:30N 24°29' E 118°04'0 0.0
2018-Jul-13 08:00N 24°29' E 118°04'0 0.0
2018-Jul-13 07:30N 24°29' E 118°04'0 0.0
2018-Jul-13 07:00N 24°29' E 118°04'0 0.0
2018-Jul-13 06:30N 24°29' E 118°04'0 0.0
2018-Jul-13 06:00N 24°29' E 118°04'0 0.0
2018-Jul-13 05:30N 24°29' E 118°04'0 0.0
2018-Jul-13 05:00N 24°29' E 118°04'0 0.0
2018-Jul-13 04:30N 24°29' E 118°04'0 0.0
2018-Jul-13 04:00N 24°29' E 118°04'0 0.0
2018-Jul-13 03:30N 24°29' E 118°04'0 0.0
2018-Jul-13 03:00N 24°29' E 118°04'1 1.7
2018-Jul-13 02:30N 24°29' E 118°03'5 9.9
2018-Jul-13 02:01N 24°24' E 118°06'510.0
2018-Jul-13 01:30N 24°21' E 118°10'714.2
2018-Jul-13 01:00N 24°15' E 118°15'5 1.1
2018-Jul-12 20:57N 24°12' E 118°19'0 0.0
2018-Jul-12 20:09N 24°12' E 118°19'0 0.0
2018-Jul-12 19:51N 24°12' E 118°19'0 0.0
2018-Jul-12 19:27N 24°12' E 118°19'0 0.0
2018-Jul-12 18:57N 24°12' E 118°19'0 0.0
2018-Jul-12 18:30N 24°12' E 118°19'0 0.0
2018-Jul-12 18:00N 24°12' E 118°19'0 0.0
2018-Jul-12 17:27N 24°12' E 118°19'0 0.1
2018-Jul-12 16:57N 24°12' E 118°19'0 0.0
2018-Jul-12 16:27N 24°12' E 118°19'0 0.0
2018-Jul-12 15:57N 24°13' E 118°19'0 0.0
2018-Jul-12 15:24N 24°13' E 118°19'0 0.0
2018-Jul-12 15:00N 24°13' E 118°19'0 0.1
2018-Jul-12 14:30N 24°13' E 118°19'0 0.0
2018-Jul-12 13:51N 24°13' E 118°19'0 0.0
2018-Jul-12 10:04N 24°13' E 118°19'0 0.2
2018-Jul-12 10:00N 24°13' E 118°19'0 0.0
2018-Jul-12 09:24N 24°12' E 118°19'0 0.0
2018-Jul-12 08:58N 24°12' E 118°19'0 0.0
2018-Jul-12 08:30N 24°12' E 118°19'0 0.0
2018-Jul-12 07:58N 24°12' E 118°19'0 0.1
2018-Jul-12 07:30N 24°12' E 118°19'0 0.0
2018-Jul-12 06:58N 24°12' E 118°19'0 0.0
2018-Jul-12 06:24N 24°12' E 118°19'0 0.0
2018-Jul-12 06:00N 24°12' E 118°19'0 0.0
2018-Jul-12 05:28N 24°12' E 118°19'0 0.0
2018-Jul-12 04:58N 24°12' E 118°19'0 0.0
2018-Jul-12 04:30N 24°12' E 118°19'0 0.0
2018-Jul-12 03:58N 24°12' E 118°19'0 0.0
2018-Jul-12 03:28N 24°12' E 118°19'0 0.0
2018-Jul-12 02:58N 24°13' E 118°19'0 0.0
2018-Jul-12 02:28N 24°13' E 118°19'0 0.0
2018-Jul-12 01:58N 24°13' E 118°19'0 0.1
2018-Jul-12 01:28N 24°13' E 118°19'1 1.1
2018-Jul-12 00:45N 24°12' E 118°19'1 2.2
2018-Jul-12 00:30N 24°12' E 118°19'4 8.4
2018-Jul-12 00:00N 24°08' E 118°18'4 8.5
2018-Jul-11 23:30N 24°04' E 118°18'4 6.9
2018-Jul-11 22:53N 23°60' E 118°17'2 6.0
2018-Jul-11 22:30N 23°58' E 118°17'3 5.7
2018-Jul-11 22:00N 23°55' E 118°17'3 5.6
2018-Jul-11 21:30N 23°52' E 118°16'3 5.8
2018-Jul-11 21:00N 23°49' E 118°16'16 5.6
2018-Jul-11 18:10N 23°34' E 118°10'633.0
2018-Jul-11 18:00N 23°30' E 118°06'   180 / 141005.0 5.4 27.025.728.0

Dump ship's entire track history